sensor_id;sensor_type;location;lat;lon;timestamp;P1;durP1;ratioP1;P2;durP2;ratioP2
35306;SDS011;21420;52.196;21.416;2023-09-30T00:02:00;21.40;;;13.50;;
35306;SDS011;21420;52.196;21.416;2023-09-30T00:04:26;20.60;;;12.50;;
35306;SDS011;21420;52.196;21.416;2023-09-30T00:06:53;15.10;;;12.90;;
35306;SDS011;21420;52.196;21.416;2023-09-30T00:09:19;16.40;;;13.30;;
35306;SDS011;21420;52.196;21.416;2023-09-30T00:11:45;16.20;;;12.70;;
35306;SDS011;21420;52.196;21.416;2023-09-30T00:14:11;18.90;;;13.30;;
35306;SDS011;21420;52.196;21.416;2023-09-30T00:16:37;15.60;;;12.60;;
35306;SDS011;21420;52.196;21.416;2023-09-30T00:19:03;17.00;;;12.00;;
35306;SDS011;21420;52.196;21.416;2023-09-30T00:21:29;15.10;;;12.10;;
35306;SDS011;21420;52.196;21.416;2023-09-30T00:23:55;14.40;;;11.80;;
35306;SDS011;21420;52.196;21.416;2023-09-30T00:26:22;17.40;;;11.80;;
35306;SDS011;21420;52.196;21.416;2023-09-30T00:28:48;16.20;;;13.10;;
35306;SDS011;21420;52.196;21.416;2023-09-30T00:31:14;18.20;;;12.50;;
35306;SDS011;21420;52.196;21.416;2023-09-30T00:33:41;19.30;;;12.40;;
35306;SDS011;21420;52.196;21.416;2023-09-30T00:36:07;16.80;;;12.00;;
35306;SDS011;21420;52.196;21.416;2023-09-30T00:38:35;16.10;;;12.60;;
35306;SDS011;21420;52.196;21.416;2023-09-30T00:41:03;16.20;;;12.30;;
35306;SDS011;21420;52.196;21.416;2023-09-30T00:43:29;18.00;;;12.50;;
35306;SDS011;21420;52.196;21.416;2023-09-30T00:46:01;18.70;;;13.40;;
35306;SDS011;21420;52.196;21.416;2023-09-30T00:48:35;18.40;;;12.20;;
35306;SDS011;21420;52.196;21.416;2023-09-30T00:51:02;17.60;;;12.30;;
35306;SDS011;21420;52.196;21.416;2023-09-30T00:53:29;14.10;;;11.70;;
35306;SDS011;21420;52.196;21.416;2023-09-30T00:55:56;16.00;;;12.50;;
35306;SDS011;21420;52.196;21.416;2023-09-30T00:58:24;16.90;;;13.10;;
35306;SDS011;21420;52.196;21.416;2023-09-30T01:00:55;15.00;;;12.30;;
35306;SDS011;21420;52.196;21.416;2023-09-30T01:03:22;20.20;;;13.00;;
35306;SDS011;21420;52.196;21.416;2023-09-30T01:05:49;17.60;;;12.10;;
35306;SDS011;21420;52.196;21.416;2023-09-30T01:08:16;14.10;;;11.60;;
35306;SDS011;21420;52.196;21.416;2023-09-30T01:10:42;17.40;;;11.80;;
35306;SDS011;21420;52.196;21.416;2023-09-30T01:13:09;16.10;;;12.30;;
35306;SDS011;21420;52.196;21.416;2023-09-30T01:15:35;15.20;;;12.80;;
35306;SDS011;21420;52.196;21.416;2023-09-30T01:18:03;13.90;;;12.00;;
35306;SDS011;21420;52.196;21.416;2023-09-30T01:20:29;15.50;;;12.30;;
35306;SDS011;21420;52.196;21.416;2023-09-30T01:22:57;16.90;;;11.00;;
35306;SDS011;21420;52.196;21.416;2023-09-30T01:25:24;14.90;;;11.70;;
35306;SDS011;21420;52.196;21.416;2023-09-30T01:27:51;12.10;;;10.70;;
35306;SDS011;21420;52.196;21.416;2023-09-30T01:30:17;19.90;;;12.60;;
35306;SDS011;21420;52.196;21.416;2023-09-30T01:32:44;16.50;;;11.60;;
35306;SDS011;21420;52.196;21.416;2023-09-30T01:35:10;13.50;;;10.80;;
35306;SDS011;21420;52.196;21.416;2023-09-30T01:37:37;15.50;;;11.00;;
35306;SDS011;21420;52.196;21.416;2023-09-30T01:40:04;14.60;;;11.60;;
35306;SDS011;21420;52.196;21.416;2023-09-30T01:42:33;15.20;;;11.10;;
35306;SDS011;21420;52.196;21.416;2023-09-30T01:45:01;13.30;;;11.40;;
35306;SDS011;21420;52.196;21.416;2023-09-30T01:47:27;15.30;;;11.10;;
35306;SDS011;21420;52.196;21.416;2023-09-30T01:49:53;19.60;;;11.90;;
35306;SDS011;21420;52.196;21.416;2023-09-30T01:52:20;16.00;;;11.00;;
35306;SDS011;21420;52.196;21.416;2023-09-30T01:54:46;13.40;;;11.90;;
35306;SDS011;21420;52.196;21.416;2023-09-30T01:57:13;15.40;;;11.30;;
35306;SDS011;21420;52.196;21.416;2023-09-30T01:59:39;14.00;;;10.80;;
35306;SDS011;21420;52.196;21.416;2023-09-30T02:02:05;18.70;;;11.00;;
35306;SDS011;21420;52.196;21.416;2023-09-30T02:04:31;14.20;;;11.00;;
35306;SDS011;21420;52.196;21.416;2023-09-30T02:06:57;14.30;;;11.70;;
35306;SDS011;21420;52.196;21.416;2023-09-30T02:09:24;14.20;;;10.70;;
35306;SDS011;21420;52.196;21.416;2023-09-30T02:11:51;14.90;;;11.60;;
35306;SDS011;21420;52.196;21.416;2023-09-30T02:14:18;13.70;;;11.30;;
35306;SDS011;21420;52.196;21.416;2023-09-30T02:17:04;15.90;;;11.50;;
35306;SDS011;21420;52.196;21.416;2023-09-30T02:19:30;12.90;;;11.10;;
35306;SDS011;21420;52.196;21.416;2023-09-30T02:21:59;16.70;;;11.10;;
35306;SDS011;21420;52.196;21.416;2023-09-30T02:24:25;16.00;;;11.10;;
35306;SDS011;21420;52.196;21.416;2023-09-30T02:26:51;14.90;;;11.40;;
35306;SDS011;21420;52.196;21.416;2023-09-30T02:29:17;15.40;;;11.10;;
35306;SDS011;21420;52.196;21.416;2023-09-30T02:31:43;14.90;;;10.80;;
35306;SDS011;21420;52.196;21.416;2023-09-30T02:34:09;13.80;;;11.60;;
35306;SDS011;21420;52.196;21.416;2023-09-30T02:36:35;17.10;;;10.90;;
35306;SDS011;21420;52.196;21.416;2023-09-30T02:39:05;15.90;;;11.00;;
35306;SDS011;21420;52.196;21.416;2023-09-30T02:41:31;11.80;;;10.50;;
35306;SDS011;21420;52.196;21.416;2023-09-30T02:43:57;14.30;;;11.60;;
35306;SDS011;21420;52.196;21.416;2023-09-30T02:46:23;14.10;;;11.10;;
35306;SDS011;21420;52.196;21.416;2023-09-30T02:48:49;17.20;;;11.50;;
35306;SDS011;21420;52.196;21.416;2023-09-30T02:51:15;13.80;;;11.90;;
35306;SDS011;21420;52.196;21.416;2023-09-30T02:53:41;17.00;;;12.40;;
35306;SDS011;21420;52.196;21.416;2023-09-30T02:56:08;13.50;;;11.10;;
35306;SDS011;21420;52.196;21.416;2023-09-30T02:58:34;15.80;;;11.00;;
35306;SDS011;21420;52.196;21.416;2023-09-30T03:01:00;12.10;;;10.40;;
35306;SDS011;21420;52.196;21.416;2023-09-30T03:03:26;17.60;;;11.10;;
35306;SDS011;21420;52.196;21.416;2023-09-30T03:05:53;14.10;;;11.00;;
35306;SDS011;21420;52.196;21.416;2023-09-30T03:08:20;16.20;;;11.10;;
35306;SDS011;21420;52.196;21.416;2023-09-30T03:10:45;14.50;;;12.00;;
35306;SDS011;21420;52.196;21.416;2023-09-30T03:13:12;13.70;;;11.60;;
35306;SDS011;21420;52.196;21.416;2023-09-30T03:15:37;16.90;;;12.10;;
35306;SDS011;21420;52.196;21.416;2023-09-30T03:18:04;15.50;;;11.50;;
35306;SDS011;21420;52.196;21.416;2023-09-30T03:20:31;16.20;;;10.70;;
35306;SDS011;21420;52.196;21.416;2023-09-30T03:22:57;13.70;;;11.20;;
35306;SDS011;21420;52.196;21.416;2023-09-30T03:25:23;15.80;;;11.80;;
35306;SDS011;21420;52.196;21.416;2023-09-30T03:27:49;14.00;;;11.10;;
35306;SDS011;21420;52.196;21.416;2023-09-30T03:30:16;14.70;;;11.80;;
35306;SDS011;21420;52.196;21.416;2023-09-30T03:32:42;17.70;;;11.60;;
35306;SDS011;21420;52.196;21.416;2023-09-30T03:35:09;16.00;;;11.30;;
35306;SDS011;21420;52.196;21.416;2023-09-30T03:37:37;14.60;;;11.60;;
35306;SDS011;21420;52.196;21.416;2023-09-30T03:40:03;13.30;;;11.90;;
35306;SDS011;21420;52.196;21.416;2023-09-30T03:42:38;15.50;;;11.60;;
35306;SDS011;21420;52.196;21.416;2023-09-30T03:45:05;14.30;;;11.90;;
35306;SDS011;21420;52.196;21.416;2023-09-30T03:47:35;17.60;;;12.60;;
35306;SDS011;21420;52.196;21.416;2023-09-30T03:50:03;18.40;;;12.30;;
35306;SDS011;21420;52.196;21.416;2023-09-30T03:52:30;18.70;;;11.90;;
35306;SDS011;21420;52.196;21.416;2023-09-30T03:55:01;19.80;;;11.50;;
35306;SDS011;21420;52.196;21.416;2023-09-30T03:57:31;18.50;;;11.80;;
35306;SDS011;21420;52.196;21.416;2023-09-30T03:59:57;14.80;;;11.50;;
35306;SDS011;21420;52.196;21.416;2023-09-30T04:02:23;14.90;;;12.10;;
35306;SDS011;21420;52.196;21.416;2023-09-30T04:04:49;15.20;;;11.80;;
35306;SDS011;21420;52.196;21.416;2023-09-30T04:07:17;15.40;;;12.20;;
35306;SDS011;21420;52.196;21.416;2023-09-30T04:09:43;14.70;;;11.00;;
35306;SDS011;21420;52.196;21.416;2023-09-30T04:12:09;15.60;;;12.60;;
35306;SDS011;21420;52.196;21.416;2023-09-30T04:14:35;16.20;;;12.60;;
35306;SDS011;21420;52.196;21.416;2023-09-30T04:17:01;16.50;;;11.60;;
35306;SDS011;21420;52.196;21.416;2023-09-30T04:19:27;15.90;;;12.50;;
35306;SDS011;21420;52.196;21.416;2023-09-30T04:21:56;16.40;;;11.80;;
35306;SDS011;21420;52.196;21.416;2023-09-30T04:24:22;21.50;;;12.30;;
35306;SDS011;21420;52.196;21.416;2023-09-30T04:26:48;17.90;;;12.20;;
35306;SDS011;21420;52.196;21.416;2023-09-30T04:29:16;17.10;;;11.80;;
35306;SDS011;21420;52.196;21.416;2023-09-30T04:31:42;18.80;;;12.70;;
35306;SDS011;21420;52.196;21.416;2023-09-30T04:34:08;15.70;;;12.40;;
35306;SDS011;21420;52.196;21.416;2023-09-30T04:36:34;15.80;;;12.70;;
35306;SDS011;21420;52.196;21.416;2023-09-30T04:39:01;16.70;;;12.70;;
35306;SDS011;21420;52.196;21.416;2023-09-30T04:41:28;17.20;;;12.00;;
35306;SDS011;21420;52.196;21.416;2023-09-30T04:43:54;14.90;;;12.30;;
35306;SDS011;21420;52.196;21.416;2023-09-30T04:46:20;18.30;;;11.70;;
35306;SDS011;21420;52.196;21.416;2023-09-30T04:48:49;18.00;;;12.40;;
35306;SDS011;21420;52.196;21.416;2023-09-30T04:51:17;17.90;;;13.20;;
35306;SDS011;21420;52.196;21.416;2023-09-30T04:53:44;14.30;;;12.10;;
35306;SDS011;21420;52.196;21.416;2023-09-30T04:56:12;16.50;;;12.20;;
35306;SDS011;21420;52.196;21.416;2023-09-30T04:58:39;16.20;;;11.90;;
35306;SDS011;21420;52.196;21.416;2023-09-30T05:01:05;11.90;;;10.70;;
35306;SDS011;21420;52.196;21.416;2023-09-30T05:03:35;17.20;;;12.10;;
35306;SDS011;21420;52.196;21.416;2023-09-30T05:06:01;14.50;;;11.80;;
35306;SDS011;21420;52.196;21.416;2023-09-30T05:08:28;17.20;;;13.10;;
35306;SDS011;21420;52.196;21.416;2023-09-30T05:10:55;15.60;;;12.90;;
35306;SDS011;21420;52.196;21.416;2023-09-30T05:13:22;14.70;;;12.40;;
35306;SDS011;21420;52.196;21.416;2023-09-30T05:15:51;16.90;;;11.50;;
35306;SDS011;21420;52.196;21.416;2023-09-30T05:18:18;15.80;;;12.70;;
35306;SDS011;21420;52.196;21.416;2023-09-30T05:20:44;15.50;;;11.60;;
35306;SDS011;21420;52.196;21.416;2023-09-30T05:23:10;14.30;;;12.70;;
35306;SDS011;21420;52.196;21.416;2023-09-30T05:25:38;16.80;;;12.80;;
35306;SDS011;21420;52.196;21.416;2023-09-30T05:28:05;16.10;;;12.60;;
35306;SDS011;21420;52.196;21.416;2023-09-30T05:30:32;17.60;;;12.10;;
35306;SDS011;21420;52.196;21.416;2023-09-30T05:33:00;16.30;;;12.40;;
35306;SDS011;21420;52.196;21.416;2023-09-30T05:35:26;15.10;;;12.00;;
35306;SDS011;21420;52.196;21.416;2023-09-30T05:37:54;15.80;;;11.80;;
35306;SDS011;21420;52.196;21.416;2023-09-30T05:40:20;17.60;;;12.30;;
35306;SDS011;21420;52.196;21.416;2023-09-30T05:42:52;15.60;;;12.60;;
35306;SDS011;21420;52.196;21.416;2023-09-30T05:45:19;14.60;;;12.10;;
35306;SDS011;21420;52.196;21.416;2023-09-30T05:47:45;19.60;;;12.60;;
35306;SDS011;21420;52.196;21.416;2023-09-30T05:50:13;16.50;;;11.60;;
35306;SDS011;21420;52.196;21.416;2023-09-30T05:52:42;17.20;;;11.90;;
35306;SDS011;21420;52.196;21.416;2023-09-30T05:55:10;15.90;;;11.50;;
35306;SDS011;21420;52.196;21.416;2023-09-30T05:57:36;15.70;;;11.60;;
35306;SDS011;21420;52.196;21.416;2023-09-30T06:00:03;18.30;;;12.70;;
35306;SDS011;21420;52.196;21.416;2023-09-30T06:02:52;15.80;;;12.30;;
35306;SDS011;21420;52.196;21.416;2023-09-30T06:05:19;16.20;;;11.90;;
35306;SDS011;21420;52.196;21.416;2023-09-30T06:07:45;16.70;;;12.00;;
35306;SDS011;21420;52.196;21.416;2023-09-30T06:10:12;19.00;;;11.80;;
35306;SDS011;21420;52.196;21.416;2023-09-30T06:12:41;15.20;;;10.90;;
35306;SDS011;21420;52.196;21.416;2023-09-30T06:15:07;16.00;;;11.70;;
35306;SDS011;21420;52.196;21.416;2023-09-30T06:17:34;15.20;;;11.60;;
35306;SDS011;21420;52.196;21.416;2023-09-30T06:20:00;18.20;;;11.80;;
35306;SDS011;21420;52.196;21.416;2023-09-30T06:22:34;14.20;;;12.10;;
35306;SDS011;21420;52.196;21.416;2023-09-30T06:25:00;15.30;;;12.60;;
35306;SDS011;21420;52.196;21.416;2023-09-30T06:27:26;14.70;;;11.90;;
35306;SDS011;21420;52.196;21.416;2023-09-30T06:29:52;18.90;;;11.80;;
35306;SDS011;21420;52.196;21.416;2023-09-30T06:32:18;14.30;;;11.60;;
35306;SDS011;21420;52.196;21.416;2023-09-30T06:34:44;17.40;;;11.70;;
35306;SDS011;21420;52.196;21.416;2023-09-30T06:37:10;15.80;;;11.90;;
35306;SDS011;21420;52.196;21.416;2023-09-30T06:39:36;14.80;;;12.40;;
35306;SDS011;21420;52.196;21.416;2023-09-30T06:42:02;13.30;;;11.60;;
35306;SDS011;21420;52.196;21.416;2023-09-30T06:44:29;14.90;;;12.10;;
35306;SDS011;21420;52.196;21.416;2023-09-30T06:46:56;16.00;;;11.00;;
35306;SDS011;21420;52.196;21.416;2023-09-30T06:49:23;15.60;;;11.70;;
35306;SDS011;21420;52.196;21.416;2023-09-30T06:51:49;13.90;;;11.30;;
35306;SDS011;21420;52.196;21.416;2023-09-30T06:54:15;15.30;;;11.50;;
35306;SDS011;21420;52.196;21.416;2023-09-30T06:56:43;14.20;;;12.30;;
35306;SDS011;21420;52.196;21.416;2023-09-30T06:59:09;14.80;;;12.70;;
35306;SDS011;21420;52.196;21.416;2023-09-30T07:01:34;13.90;;;11.30;;
35306;SDS011;21420;52.196;21.416;2023-09-30T07:04:00;14.10;;;11.80;;
35306;SDS011;21420;52.196;21.416;2023-09-30T07:06:27;14.90;;;11.70;;
35306;SDS011;21420;52.196;21.416;2023-09-30T07:08:53;13.40;;;11.40;;
35306;SDS011;21420;52.196;21.416;2023-09-30T07:11:29;12.30;;;11.00;;
35306;SDS011;21420;52.196;21.416;2023-09-30T07:13:58;16.40;;;12.10;;
35306;SDS011;21420;52.196;21.416;2023-09-30T07:16:24;16.70;;;11.80;;
35306;SDS011;21420;52.196;21.416;2023-09-30T07:18:50;16.40;;;12.10;;
35306;SDS011;21420;52.196;21.416;2023-09-30T07:21:16;17.80;;;11.70;;
35306;SDS011;21420;52.196;21.416;2023-09-30T07:23:42;13.00;;;11.00;;
35306;SDS011;21420;52.196;21.416;2023-09-30T07:26:08;14.90;;;12.10;;
35306;SDS011;21420;52.196;21.416;2023-09-30T07:28:34;15.50;;;12.60;;
35306;SDS011;21420;52.196;21.416;2023-09-30T07:31:00;13.90;;;12.10;;
35306;SDS011;21420;52.196;21.416;2023-09-30T07:33:26;14.00;;;11.30;;
35306;SDS011;21420;52.196;21.416;2023-09-30T07:35:52;11.80;;;10.50;;
35306;SDS011;21420;52.196;21.416;2023-09-30T07:38:18;14.90;;;11.30;;
35306;SDS011;21420;52.196;21.416;2023-09-30T07:40:44;13.70;;;11.90;;
35306;SDS011;21420;52.196;21.416;2023-09-30T07:43:10;14.40;;;12.50;;
35306;SDS011;21420;52.196;21.416;2023-09-30T07:45:38;16.30;;;11.20;;
35306;SDS011;21420;52.196;21.416;2023-09-30T07:48:06;12.50;;;11.20;;
35306;SDS011;21420;52.196;21.416;2023-09-30T07:53:04;12.80;;;11.50;;
35306;SDS011;21420;52.196;21.416;2023-09-30T07:55:30;14.10;;;12.30;;
35306;SDS011;21420;52.196;21.416;2023-09-30T07:57:56;12.30;;;10.90;;
35306;SDS011;21420;52.196;21.416;2023-09-30T08:00:23;12.30;;;11.10;;
35306;SDS011;21420;52.196;21.416;2023-09-30T08:02:49;13.30;;;11.80;;
35306;SDS011;21420;52.196;21.416;2023-09-30T08:05:16;13.50;;;12.10;;
35306;SDS011;21420;52.196;21.416;2023-09-30T08:07:42;17.90;;;11.30;;
35306;SDS011;21420;52.196;21.416;2023-09-30T08:10:08;12.80;;;10.40;;
35306;SDS011;21420;52.196;21.416;2023-09-30T08:12:39;12.70;;;10.90;;
35306;SDS011;21420;52.196;21.416;2023-09-30T08:15:06;14.70;;;12.60;;
35306;SDS011;21420;52.196;21.416;2023-09-30T08:17:33;30.60;;;24.90;;
35306;SDS011;21420;52.196;21.416;2023-09-30T08:19:59;14.10;;;12.30;;
35306;SDS011;21420;52.196;21.416;2023-09-30T08:22:26;15.70;;;12.60;;
35306;SDS011;21420;52.196;21.416;2023-09-30T08:24:54;15.10;;;12.80;;
35306;SDS011;21420;52.196;21.416;2023-09-30T08:27:20;16.00;;;13.70;;
35306;SDS011;21420;52.196;21.416;2023-09-30T08:29:46;20.80;;;18.50;;
35306;SDS011;21420;52.196;21.416;2023-09-30T08:32:12;21.50;;;15.90;;
35306;SDS011;21420;52.196;21.416;2023-09-30T08:34:38;16.20;;;13.00;;
35306;SDS011;21420;52.196;21.416;2023-09-30T08:37:04;22.40;;;14.50;;
35306;SDS011;21420;52.196;21.416;2023-09-30T08:39:30;22.40;;;17.20;;
35306;SDS011;21420;52.196;21.416;2023-09-30T08:41:58;24.30;;;18.00;;
35306;SDS011;21420;52.196;21.416;2023-09-30T08:44:28;18.30;;;15.00;;
35306;SDS011;21420;52.196;21.416;2023-09-30T08:46:55;25.00;;;16.70;;
35306;SDS011;21420;52.196;21.416;2023-09-30T08:49:22;20.00;;;17.20;;
35306;SDS011;21420;52.196;21.416;2023-09-30T08:51:48;25.50;;;17.80;;
35306;SDS011;21420;52.196;21.416;2023-09-30T08:54:15;21.80;;;16.80;;
35306;SDS011;21420;52.196;21.416;2023-09-30T08:56:41;17.20;;;13.60;;
35306;SDS011;21420;52.196;21.416;2023-09-30T08:59:14;19.70;;;14.70;;
35306;SDS011;21420;52.196;21.416;2023-09-30T09:01:40;19.70;;;14.60;;
35306;SDS011;21420;52.196;21.416;2023-09-30T09:04:06;20.60;;;14.30;;
35306;SDS011;21420;52.196;21.416;2023-09-30T09:06:33;20.10;;;15.90;;
35306;SDS011;21420;52.196;21.416;2023-09-30T09:09:17;16.10;;;13.10;;
35306;SDS011;21420;52.196;21.416;2023-09-30T09:11:45;23.70;;;17.60;;
35306;SDS011;21420;52.196;21.416;2023-09-30T09:14:12;24.10;;;17.20;;
35306;SDS011;21420;52.196;21.416;2023-09-30T09:16:50;18.00;;;15.00;;
35306;SDS011;21420;52.196;21.416;2023-09-30T09:19:20;17.70;;;13.70;;
35306;SDS011;21420;52.196;21.416;2023-09-30T09:21:54;15.60;;;13.90;;
35306;SDS011;21420;52.196;21.416;2023-09-30T09:27:11;23.40;;;16.60;;
35306;SDS011;21420;52.196;21.416;2023-09-30T09:29:39;16.80;;;13.70;;
35306;SDS011;21420;52.196;21.416;2023-09-30T09:32:15;19.40;;;15.20;;
35306;SDS011;21420;52.196;21.416;2023-09-30T09:34:42;15.70;;;14.10;;
35306;SDS011;21420;52.196;21.416;2023-09-30T09:37:19;15.90;;;13.60;;
35306;SDS011;21420;52.196;21.416;2023-09-30T09:42:23;15.90;;;12.90;;
35306;SDS011;21420;52.196;21.416;2023-09-30T09:45:03;18.00;;;15.20;;
35306;SDS011;21420;52.196;21.416;2023-09-30T09:47:31;18.90;;;14.60;;
35306;SDS011;21420;52.196;21.416;2023-09-30T09:49:59;14.80;;;13.30;;
35306;SDS011;21420;52.196;21.416;2023-09-30T09:52:28;17.00;;;13.60;;
35306;SDS011;21420;52.196;21.416;2023-09-30T09:54:55;38.50;;;21.90;;
35306;SDS011;21420;52.196;21.416;2023-09-30T09:57:23;39.10;;;22.90;;
35306;SDS011;21420;52.196;21.416;2023-09-30T09:59:51;21.70;;;16.10;;
35306;SDS011;21420;52.196;21.416;2023-09-30T10:02:19;22.00;;;15.70;;
35306;SDS011;21420;52.196;21.416;2023-09-30T10:04:45;20.40;;;14.40;;
35306;SDS011;21420;52.196;21.416;2023-09-30T10:07:18;17.90;;;14.40;;
35306;SDS011;21420;52.196;21.416;2023-09-30T10:09:52;18.10;;;14.70;;
35306;SDS011;21420;52.196;21.416;2023-09-30T10:12:19;16.90;;;13.70;;
35306;SDS011;21420;52.196;21.416;2023-09-30T10:14:49;17.10;;;14.10;;
35306;SDS011;21420;52.196;21.416;2023-09-30T10:17:15;17.90;;;15.60;;
35306;SDS011;21420;52.196;21.416;2023-09-30T10:22:30;16.80;;;14.80;;
35306;SDS011;21420;52.196;21.416;2023-09-30T10:24:57;16.00;;;14.30;;
35306;SDS011;21420;52.196;21.416;2023-09-30T10:30:11;18.80;;;16.10;;
35306;SDS011;21420;52.196;21.416;2023-09-30T10:35:17;17.30;;;13.70;;
35306;SDS011;21420;52.196;21.416;2023-09-30T10:40:49;20.50;;;17.70;;
35306;SDS011;21420;52.196;21.416;2023-09-30T10:43:31;20.20;;;18.30;;
35306;SDS011;21420;52.196;21.416;2023-09-30T10:45:57;15.50;;;13.90;;
35306;SDS011;21420;52.196;21.416;2023-09-30T10:50:50;14.60;;;11.80;;
35306;SDS011;21420;52.196;21.416;2023-09-30T10:53:18;14.90;;;13.20;;
35306;SDS011;21420;52.196;21.416;2023-09-30T10:55:45;13.90;;;12.50;;
35306;SDS011;21420;52.196;21.416;2023-09-30T10:58:14;14.20;;;12.80;;
35306;SDS011;21420;52.196;21.416;2023-09-30T11:01:01;12.30;;;10.50;;
35306;SDS011;21420;52.196;21.416;2023-09-30T11:03:26;11.60;;;10.40;;
35306;SDS011;21420;52.196;21.416;2023-09-30T11:05:53;11.20;;;9.90;;
35306;SDS011;21420;52.196;21.416;2023-09-30T11:08:37;9.80;;;7.70;;
35306;SDS011;21420;52.196;21.416;2023-09-30T11:11:03;9.40;;;7.90;;
35306;SDS011;21420;52.196;21.416;2023-09-30T11:13:33;9.10;;;8.20;;
35306;SDS011;21420;52.196;21.416;2023-09-30T11:16:03;8.60;;;7.80;;
35306;SDS011;21420;52.196;21.416;2023-09-30T11:18:34;8.80;;;7.90;;
35306;SDS011;21420;52.196;21.416;2023-09-30T11:21:05;9.40;;;6.80;;
35306;SDS011;21420;52.196;21.416;2023-09-30T11:23:36;7.80;;;6.10;;
35306;SDS011;21420;52.196;21.416;2023-09-30T11:26:03;6.80;;;6.10;;
35306;SDS011;21420;52.196;21.416;2023-09-30T11:28:37;8.70;;;6.20;;
35306;SDS011;21420;52.196;21.416;2023-09-30T11:31:07;7.10;;;5.80;;
35306;SDS011;21420;52.196;21.416;2023-09-30T11:33:49;8.70;;;6.30;;
35306;SDS011;21420;52.196;21.416;2023-09-30T11:36:17;7.70;;;5.60;;
35306;SDS011;21420;52.196;21.416;2023-09-30T11:38:45;8.50;;;5.00;;
35306;SDS011;21420;52.196;21.416;2023-09-30T11:41:13;8.90;;;5.00;;
35306;SDS011;21420;52.196;21.416;2023-09-30T11:43:39;8.40;;;4.60;;
35306;SDS011;21420;52.196;21.416;2023-09-30T11:46:24;5.10;;;4.60;;
35306;SDS011;21420;52.196;21.416;2023-09-30T11:49:00;8.00;;;5.00;;
35306;SDS011;21420;52.196;21.416;2023-09-30T11:51:28;4.60;;;4.00;;
35306;SDS011;21420;52.196;21.416;2023-09-30T11:53:55;4.70;;;4.20;;
35306;SDS011;21420;52.196;21.416;2023-09-30T11:56:23;5.70;;;3.50;;
35306;SDS011;21420;52.196;21.416;2023-09-30T11:58:55;5.70;;;3.00;;
35306;SDS011;21420;52.196;21.416;2023-09-30T12:01:22;7.10;;;3.70;;
35306;SDS011;21420;52.196;21.416;2023-09-30T12:03:51;8.30;;;4.40;;
35306;SDS011;21420;52.196;21.416;2023-09-30T12:06:18;12.90;;;6.10;;
35306;SDS011;21420;52.196;21.416;2023-09-30T12:08:43;8.80;;;4.30;;
35306;SDS011;21420;52.196;21.416;2023-09-30T12:11:10;8.80;;;4.60;;
35306;SDS011;21420;52.196;21.416;2023-09-30T12:13:38;9.80;;;6.10;;
35306;SDS011;21420;52.196;21.416;2023-09-30T12:16:05;9.90;;;4.80;;
35306;SDS011;21420;52.196;21.416;2023-09-30T12:18:31;8.80;;;5.30;;
35306;SDS011;21420;52.196;21.416;2023-09-30T12:20:57;11.00;;;4.80;;
35306;SDS011;21420;52.196;21.416;2023-09-30T12:23:23;6.90;;;4.60;;
35306;SDS011;21420;52.196;21.416;2023-09-30T12:25:49;5.20;;;3.60;;
35306;SDS011;21420;52.196;21.416;2023-09-30T12:28:36;9.70;;;4.20;;
35306;SDS011;21420;52.196;21.416;2023-09-30T12:31:02;6.30;;;3.50;;
35306;SDS011;21420;52.196;21.416;2023-09-30T12:33:29;5.80;;;3.30;;
35306;SDS011;21420;52.196;21.416;2023-09-30T12:35:56;9.20;;;4.90;;
35306;SDS011;21420;52.196;21.416;2023-09-30T12:38:24;5.60;;;3.30;;
35306;SDS011;21420;52.196;21.416;2023-09-30T12:40:51;5.90;;;3.00;;
35306;SDS011;21420;52.196;21.416;2023-09-30T12:43:21;5.80;;;2.90;;
35306;SDS011;21420;52.196;21.416;2023-09-30T12:45:48;4.20;;;2.70;;
35306;SDS011;21420;52.196;21.416;2023-09-30T12:48:14;5.10;;;2.80;;
35306;SDS011;21420;52.196;21.416;2023-09-30T12:50:44;10.40;;;3.60;;
35306;SDS011;21420;52.196;21.416;2023-09-30T12:53:10;6.70;;;3.20;;
35306;SDS011;21420;52.196;21.416;2023-09-30T12:55:36;7.70;;;3.30;;
35306;SDS011;21420;52.196;21.416;2023-09-30T12:58:02;5.30;;;2.90;;
35306;SDS011;21420;52.196;21.416;2023-09-30T13:00:28;7.50;;;3.10;;
35306;SDS011;21420;52.196;21.416;2023-09-30T13:05:25;7.00;;;3.50;;
35306;SDS011;21420;52.196;21.416;2023-09-30T13:07:51;4.50;;;2.40;;
35306;SDS011;21420;52.196;21.416;2023-09-30T13:10:21;6.60;;;3.00;;
35306;SDS011;21420;52.196;21.416;2023-09-30T13:12:48;6.00;;;3.60;;
35306;SDS011;21420;52.196;21.416;2023-09-30T13:15:18;6.00;;;3.20;;
35306;SDS011;21420;52.196;21.416;2023-09-30T13:17:44;5.70;;;3.10;;
35306;SDS011;21420;52.196;21.416;2023-09-30T13:20:10;6.60;;;2.50;;
35306;SDS011;21420;52.196;21.416;2023-09-30T13:22:37;4.20;;;2.80;;
35306;SDS011;21420;52.196;21.416;2023-09-30T13:25:07;5.50;;;2.90;;
35306;SDS011;21420;52.196;21.416;2023-09-30T13:27:34;6.20;;;3.40;;
35306;SDS011;21420;52.196;21.416;2023-09-30T13:30:00;9.40;;;3.90;;
35306;SDS011;21420;52.196;21.416;2023-09-30T13:32:27;11.80;;;6.20;;
35306;SDS011;21420;52.196;21.416;2023-09-30T13:34:53;13.90;;;7.60;;
35306;SDS011;21420;52.196;21.416;2023-09-30T13:37:20;7.90;;;4.10;;
35306;SDS011;21420;52.196;21.416;2023-09-30T13:39:46;6.80;;;3.30;;
35306;SDS011;21420;52.196;21.416;2023-09-30T13:42:13;7.80;;;3.00;;
35306;SDS011;21420;52.196;21.416;2023-09-30T13:44:39;6.50;;;3.10;;
35306;SDS011;21420;52.196;21.416;2023-09-30T13:47:05;6.80;;;3.90;;
35306;SDS011;21420;52.196;21.416;2023-09-30T13:49:31;6.90;;;4.20;;
35306;SDS011;21420;52.196;21.416;2023-09-30T13:51:57;10.70;;;4.00;;
35306;SDS011;21420;52.196;21.416;2023-09-30T13:54:23;5.30;;;3.40;;
35306;SDS011;21420;52.196;21.416;2023-09-30T13:56:49;10.20;;;5.70;;
35306;SDS011;21420;52.196;21.416;2023-09-30T13:59:15;8.00;;;4.50;;
35306;SDS011;21420;52.196;21.416;2023-09-30T14:01:41;8.90;;;4.20;;
35306;SDS011;21420;52.196;21.416;2023-09-30T14:04:07;6.80;;;4.40;;
35306;SDS011;21420;52.196;21.416;2023-09-30T14:06:34;8.70;;;3.40;;
35306;SDS011;21420;52.196;21.416;2023-09-30T14:09:00;8.10;;;3.80;;
35306;SDS011;21420;52.196;21.416;2023-09-30T14:11:26;7.80;;;3.80;;
35306;SDS011;21420;52.196;21.416;2023-09-30T14:13:52;6.10;;;3.40;;
35306;SDS011;21420;52.196;21.416;2023-09-30T14:16:18;6.00;;;3.50;;
35306;SDS011;21420;52.196;21.416;2023-09-30T14:18:44;5.90;;;3.60;;
35306;SDS011;21420;52.196;21.416;2023-09-30T14:21:10;9.70;;;4.00;;
35306;SDS011;21420;52.196;21.416;2023-09-30T14:23:36;7.10;;;4.20;;
35306;SDS011;21420;52.196;21.416;2023-09-30T14:26:05;6.50;;;3.60;;
35306;SDS011;21420;52.196;21.416;2023-09-30T14:28:36;9.80;;;4.80;;
35306;SDS011;21420;52.196;21.416;2023-09-30T14:31:03;9.10;;;4.00;;
35306;SDS011;21420;52.196;21.416;2023-09-30T14:33:30;11.50;;;4.60;;
35306;SDS011;21420;52.196;21.416;2023-09-30T14:35:56;9.20;;;5.30;;
35306;SDS011;21420;52.196;21.416;2023-09-30T14:38:25;7.00;;;3.70;;
35306;SDS011;21420;52.196;21.416;2023-09-30T14:40:51;6.80;;;4.00;;
35306;SDS011;21420;52.196;21.416;2023-09-30T14:43:17;10.60;;;5.30;;